createdAt,value
2018-09-01T00:02:18.514Z,84.10
2018-09-01T00:04:46.818Z,84.60
2018-09-01T00:07:15.114Z,84.90
2018-09-01T00:09:43.357Z,85.20
2018-09-01T00:12:11.595Z,84.80
2018-09-01T00:14:40.278Z,85.30
2018-09-01T00:17:13.884Z,85.20
2018-09-01T00:19:42.076Z,86.20
2018-09-01T00:22:10.397Z,86.60
2018-09-01T00:24:38.913Z,86.80
2018-09-01T00:27:07.410Z,87.00
2018-09-01T00:29:36.897Z,87.00
2018-09-01T00:32:05.584Z,87.60
2018-09-01T00:34:33.783Z,87.90
2018-09-01T00:37:01.993Z,88.00
2018-09-01T00:39:30.910Z,88.10
2018-09-01T00:41:59.139Z,87.30
2018-09-01T00:44:27.368Z,86.90
2018-09-01T00:46:55.619Z,87.30
2018-09-01T00:49:24.117Z,86.80
2018-09-01T00:51:52.652Z,85.90
2018-09-01T00:54:21.409Z,86.10
2018-09-01T00:56:50.298Z,85.70
2018-09-01T00:59:19.316Z,85.90
2018-09-01T01:01:47.717Z,84.90
2018-09-01T01:04:18.617Z,85.50
2018-09-01T01:06:49.418Z,85.40
2018-09-01T01:09:17.652Z,85.80
2018-09-01T01:11:46.711Z,86.40
2018-09-01T01:14:14.922Z,87.00
2018-09-01T01:16:43.190Z,86.70
2018-09-01T01:19:11.820Z,87.70
2018-09-01T01:21:40.361Z,87.50
2018-09-01T01:24:09.115Z,86.90
2018-09-01T01:26:38.186Z,87.50
2018-09-01T01:29:06.700Z,86.30
2018-09-01T01:31:35.731Z,85.80
2018-09-01T01:34:04.009Z,85.90
2018-09-01T01:36:32.485Z,86.60
2018-09-01T01:39:00.695Z,87.20
2018-09-01T01:41:29.230Z,87.60
2018-09-01T01:43:57.420Z,87.40
2018-09-01T01:46:25.857Z,86.30
2018-09-01T01:48:55.215Z,86.10
2018-09-01T01:51:23.908Z,85.80
2018-09-01T01:53:52.438Z,85.40
2018-09-01T01:56:20.948Z,86.10
2018-09-01T01:58:49.635Z,86.60
2018-09-01T02:01:18.312Z,86.90
2018-09-01T02:03:46.943Z,86.90
2018-09-01T02:06:15.552Z,86.80
2018-09-01T02:08:43.909Z,87.70
2018-09-01T02:11:12.916Z,86.60
2018-09-01T02:13:41.824Z,86.80
2018-09-01T02:16:10.292Z,85.70
2018-09-01T02:18:38.810Z,85.90
2018-09-01T02:21:07.088Z,85.10
2018-09-01T02:23:35.285Z,85.10
2018-09-01T02:26:03.499Z,85.10
2018-09-01T02:28:31.959Z,85.00
2018-09-01T02:31:00.189Z,85.10
2018-09-01T02:33:28.818Z,84.90
2018-09-01T02:35:57.024Z,84.90
2018-09-01T02:38:25.278Z,84.30
2018-09-01T02:40:53.871Z,85.20
2018-09-01T02:43:22.712Z,85.00
2018-09-01T02:45:51.004Z,85.70
2018-09-01T02:48:19.230Z,85.20
2018-09-01T02:50:47.518Z,84.80
2018-09-01T02:53:15.808Z,84.80
2018-09-01T02:55:44.072Z,81.40
2018-09-01T02:58:12.624Z,83.50
2018-09-01T03:00:40.818Z,84.60
2018-09-01T03:03:09.033Z,83.70
2018-09-01T03:05:37.367Z,82.90
2018-09-01T03:08:05.831Z,81.50
2018-09-01T03:10:34.197Z,81.90
2018-09-01T03:13:02.813Z,80.90
2018-09-01T03:15:31.213Z,81.60
2018-09-01T03:18:00.384Z,81.40
2018-09-01T03:20:28.855Z,81.90
2018-09-01T03:22:57.422Z,81.00
2018-09-01T03:25:25.904Z,81.40
2018-09-01T03:27:54.541Z,81.20
2018-09-01T03:30:22.732Z,82.60
2018-09-01T03:32:51.148Z,82.00
2018-09-01T03:35:19.715Z,81.90
2018-09-01T03:37:47.967Z,82.50
2018-09-01T03:40:16.507Z,82.60
2018-09-01T03:42:44.857Z,82.70
2018-09-01T03:45:13.249Z,83.30
2018-09-01T03:47:43.125Z,83.80
2018-09-01T03:50:11.354Z,83.30
2018-09-01T03:52:41.464Z,83.00
2018-09-01T03:55:09.907Z,83.30
2018-09-01T03:57:39.545Z,83.50
2018-09-01T04:00:07.971Z,85.00
2018-09-01T04:02:37.172Z,84.40
2018-09-01T04:05:06.772Z,85.20
2018-09-01T04:10:04.759Z,84.70
2018-09-01T04:12:33.381Z,84.60
2018-09-01T04:15:01.733Z,85.00
2018-09-01T04:17:30.292Z,84.30
2018-09-01T04:19:59.159Z,85.00
2018-09-01T04:22:27.840Z,85.10
2018-09-01T04:24:56.743Z,85.30
2018-09-01T04:27:25.316Z,85.70
2018-09-01T04:29:53.541Z,85.30
2018-09-01T04:32:21.742Z,84.90
2018-09-01T04:34:50.103Z,84.70
2018-09-01T04:37:18.646Z,85.20
2018-09-01T04:39:49.641Z,84.50
2018-09-01T04:42:18.190Z,84.10
2018-09-01T04:44:46.980Z,84.70
2018-09-01T04:47:16.096Z,84.90
2018-09-01T04:49:47.212Z,84.60
2018-09-01T04:52:15.523Z,83.70
2018-09-01T04:57:14.107Z,83.30
2018-09-01T04:59:42.708Z,83.80
2018-09-01T05:02:11.220Z,83.20
2018-09-01T05:04:39.858Z,83.90
2018-09-01T05:07:08.240Z,83.90
2018-09-01T05:09:36.497Z,82.50
2018-09-01T05:12:05.434Z,83.00
2018-09-01T05:14:35.063Z,82.00
2018-09-01T05:17:03.615Z,82.90
2018-09-01T05:19:32.887Z,81.70
2018-09-01T05:22:01.213Z,82.20
2018-09-01T05:24:29.783Z,82.00
2018-09-01T05:26:59.150Z,82.30
2018-09-01T05:29:27.349Z,82.40
2018-09-01T05:31:55.868Z,81.60
2018-09-01T05:34:24.518Z,80.40
2018-09-01T05:36:53.024Z,80.80
2018-09-01T05:39:21.568Z,81.00
2018-09-01T05:41:49.906Z,81.00
2018-09-01T05:44:18.123Z,80.80
2018-09-01T05:46:46.523Z,80.90
2018-09-01T05:49:14.805Z,80.50
2018-09-01T05:51:43.714Z,80.40
2018-09-01T05:54:11.922Z,79.90
2018-09-01T05:56:40.153Z,80.50
2018-09-01T05:59:08.690Z,80.70
2018-09-01T06:01:37.176Z,80.90
2018-09-01T06:04:06.067Z,81.00
2018-09-01T06:06:34.606Z,81.10
2018-09-01T06:09:04.216Z,81.50
2018-09-01T06:11:32.425Z,81.50
2018-09-01T06:14:00.948Z,81.60
2018-09-01T06:16:30.055Z,82.20
2018-09-01T06:18:58.264Z,81.80
2018-09-01T06:21:26.812Z,81.30
2018-09-01T06:23:55.355Z,81.90
2018-09-01T06:26:23.557Z,82.30
2018-09-01T06:28:56.972Z,81.60
2018-09-01T06:31:25.268Z,81.30
2018-09-01T06:33:53.613Z,80.60
2018-09-01T06:36:21.895Z,80.70
2018-09-01T06:38:50.107Z,80.70
2018-09-01T06:41:18.869Z,80.10
2018-09-01T06:43:47.542Z,78.60
2018-09-01T06:46:15.779Z,78.40
2018-09-01T06:48:44.323Z,78.60
2018-09-01T06:51:13.163Z,77.90
2018-09-01T06:53:41.427Z,76.30
2018-09-01T06:56:09.783Z,76.40
2018-09-01T06:58:37.970Z,74.70
2018-09-01T07:01:06.838Z,75.90
2018-09-01T07:03:35.061Z,75.00
2018-09-01T07:06:03.299Z,74.00
2018-09-01T07:08:31.657Z,73.40
2018-09-01T07:11:00.139Z,73.40
2018-09-01T07:13:30.952Z,73.40
2018-09-01T07:15:59.356Z,73.40
2018-09-01T07:18:27.878Z,73.50
2018-09-01T07:20:56.240Z,72.50
2018-09-01T07:23:24.397Z,73.10
2018-09-01T07:25:52.680Z,71.10
2018-09-01T07:28:21.239Z,71.50
2018-09-01T07:30:49.823Z,69.60
2018-09-01T07:33:17.935Z,69.10
2018-09-01T07:35:46.401Z,67.50
2018-09-01T07:38:15.831Z,68.30
2018-09-01T07:40:44.538Z,68.50
2018-09-01T07:43:16.278Z,66.70
2018-09-01T07:45:45.109Z,65.00
2018-09-01T07:48:13.773Z,65.20
2018-09-01T07:50:42.612Z,65.50
2018-09-01T07:53:11.148Z,65.40
2018-09-01T07:55:41.763Z,63.40
2018-09-01T07:58:10.703Z,62.00
2018-09-01T08:00:39.780Z,62.30
2018-09-01T08:03:08.526Z,63.50
2018-09-01T08:05:38.496Z,60.90
2018-09-01T08:08:12.449Z,61.00
2018-09-01T08:10:42.496Z,61.90
2018-09-01T08:13:12.807Z,60.50
2018-09-01T08:15:43.067Z,61.20
2018-09-01T08:18:13.246Z,62.70
2018-09-01T08:20:43.567Z,60.00
2018-09-01T08:23:15.214Z,58.90
2018-09-01T08:25:44.057Z,58.40
2018-09-01T08:28:12.994Z,55.50
2018-09-01T08:30:41.609Z,58.70
2018-09-01T08:33:10.563Z,57.70
2018-09-01T08:35:41.468Z,57.10
2018-09-01T08:38:11.735Z,55.00
2018-09-01T08:40:42.118Z,55.00
2018-09-01T08:43:12.732Z,54.30
2018-09-01T08:45:42.957Z,54.20
2018-09-01T08:48:13.510Z,52.50
2018-09-01T08:50:48.842Z,53.10
2018-09-01T08:53:18.592Z,51.50
2018-09-01T08:55:48.685Z,51.60
2018-09-01T08:58:18.208Z,50.60
2018-09-01T09:00:47.176Z,50.30
2018-09-01T09:03:15.405Z,49.50
2018-09-01T09:05:44.231Z,50.10
2018-09-01T09:08:13.508Z,50.00
2018-09-01T09:10:42.067Z,49.20
2018-09-01T09:13:10.957Z,48.60
2018-09-01T09:15:39.585Z,48.10
2018-09-01T09:18:07.854Z,49.10
2018-09-01T09:20:36.116Z,47.60
2018-09-01T09:23:04.945Z,47.70
2018-09-01T09:25:33.192Z,47.00
2018-09-01T09:28:01.486Z,45.80
2018-09-01T09:30:30.068Z,44.50
2018-09-01T09:32:58.747Z,43.90
2018-09-01T09:35:27.323Z,44.50
2018-09-01T09:37:55.895Z,43.70
2018-09-01T09:40:24.688Z,42.70
2018-09-01T09:42:53.597Z,41.70
2018-09-01T09:45:23.120Z,42.60
2018-09-01T09:47:52.039Z,42.00
2018-09-01T09:50:20.888Z,41.60
2018-09-01T09:52:49.452Z,40.40
2018-09-01T09:55:18.033Z,41.40
2018-09-01T09:57:46.717Z,40.00
2018-09-01T10:00:20.181Z,40.00
2018-09-01T10:02:48.553Z,39.80
2018-09-01T10:05:17.596Z,38.70
2018-09-01T10:07:45.688Z,39.20
2018-09-01T10:10:14.391Z,38.20
2018-09-01T10:12:42.576Z,38.40
2018-09-01T10:15:10.829Z,38.40
2018-09-01T10:17:39.311Z,37.50
2018-09-01T10:20:07.906Z,37.30
2018-09-01T10:22:36.302Z,34.40
2018-09-01T10:25:04.852Z,34.80
2018-09-01T10:27:33.707Z,33.40
2018-09-01T10:30:01.982Z,34.70
2018-09-01T10:32:30.260Z,33.90
2018-09-01T10:34:58.767Z,34.20
2018-09-01T10:37:27.125Z,34.50
2018-09-01T10:39:58.079Z,29.10
2018-09-01T10:42:27.180Z,29.50
2018-09-01T10:44:55.996Z,27.90
2018-09-01T10:47:24.329Z,27.30
2018-09-01T10:49:55.671Z,27.80
2018-09-01T10:52:24.230Z,27.10
2018-09-01T10:54:53.160Z,27.90
2018-09-01T10:57:21.711Z,27.50
2018-09-01T10:59:50.746Z,27.90
2018-09-01T11:02:20.071Z,27.20
2018-09-01T11:04:48.526Z,27.60
2018-09-01T11:07:17.428Z,26.70
2018-09-01T11:09:46.147Z,27.60
2018-09-01T11:12:14.832Z,26.80
2018-09-01T11:14:43.485Z,27.90
2018-09-01T11:17:12.277Z,28.10
2018-09-01T11:19:41.675Z,27.80
2018-09-01T11:22:10.631Z,27.70
2018-09-01T11:24:39.964Z,27.50
2018-09-01T11:27:08.306Z,27.10
2018-09-01T11:29:36.710Z,27.10
2018-09-01T11:32:05.855Z,26.30
2018-09-01T11:34:34.621Z,26.70
2018-09-01T11:37:03.215Z,27.40
2018-09-01T11:39:31.590Z,27.90
2018-09-01T11:42:00.147Z,27.10
2018-09-01T11:44:30.273Z,26.70
2018-09-01T11:46:59.409Z,27.60
2018-09-01T11:49:27.965Z,27.90
2018-09-01T11:51:56.307Z,27.60
2018-09-01T11:54:24.500Z,27.40
2018-09-01T11:56:53.344Z,26.90
2018-09-01T11:59:22.181Z,26.50
2018-09-01T12:01:50.752Z,27.40
2018-09-01T12:04:19.678Z,26.70
2018-09-01T12:06:48.125Z,27.30
2018-09-01T12:09:16.357Z,27.00
2018-09-01T12:11:45.230Z,27.50
2018-09-01T12:14:15.258Z,27.80
2018-09-01T12:16:44.390Z,27.50
2018-09-01T12:19:12.616Z,27.00
2018-09-01T12:21:41.677Z,26.80
2018-09-01T12:24:09.915Z,26.80
2018-09-01T12:26:38.442Z,27.00
2018-09-01T12:29:06.666Z,26.90
2018-09-01T12:31:35.131Z,26.90
2018-09-01T12:34:03.975Z,27.50
2018-09-01T12:36:32.788Z,27.00
2018-09-01T12:39:01.038Z,27.00
2018-09-01T12:41:29.745Z,27.60
2018-09-01T12:43:58.299Z,27.50
2018-09-01T12:46:26.564Z,27.60
2018-09-01T12:48:54.812Z,26.60
2018-09-01T12:51:23.054Z,26.30
2018-09-01T12:53:51.308Z,26.10
2018-09-01T12:56:20.109Z,25.60
2018-09-01T12:58:48.502Z,26.30
2018-09-01T13:01:16.925Z,27.20
2018-09-01T13:03:47.941Z,26.70
2018-09-01T13:06:16.538Z,27.00
2018-09-01T13:08:44.951Z,27.70
2018-09-01T13:11:13.900Z,27.80
2018-09-01T13:13:42.062Z,27.90
2018-09-01T13:16:10.823Z,27.50
2018-09-01T13:18:39.152Z,27.00
2018-09-01T13:21:07.406Z,27.60
2018-09-01T13:23:36.062Z,27.60
2018-09-01T13:26:04.360Z,27.00
2018-09-01T13:28:36.139Z,26.50
2018-09-01T13:31:08.308Z,26.70
2018-09-01T13:36:26.902Z,25.70
2018-09-01T13:38:55.649Z,25.90
2018-09-01T13:41:24.300Z,26.30
2018-09-01T13:43:53.153Z,25.80
2018-09-01T13:46:21.658Z,26.10
2018-09-01T13:48:50.128Z,26.30
2018-09-01T13:51:18.684Z,26.40
2018-09-01T13:53:47.503Z,25.80
2018-09-01T13:56:16.823Z,26.20
2018-09-01T13:58:46.172Z,26.50
2018-09-01T14:01:14.780Z,26.90
2018-09-01T14:03:43.739Z,27.10
2018-09-01T14:06:12.670Z,27.50
2018-09-01T14:08:42.429Z,27.70
2018-09-01T14:11:13.118Z,27.60
2018-09-01T14:13:44.492Z,28.00
2018-09-01T14:16:13.190Z,27.00
2018-09-01T14:18:42.258Z,26.20
2018-09-01T14:21:11.554Z,26.30
2018-09-01T14:26:17.259Z,24.40
2018-09-01T14:28:46.109Z,24.20
2018-09-01T14:31:14.766Z,23.20
2018-09-01T14:33:45.804Z,23.20
2018-09-01T14:36:16.286Z,23.80
2018-09-01T14:38:45.553Z,24.30
2018-09-01T14:41:14.124Z,24.10
2018-09-01T14:43:43.644Z,25.10
2018-09-01T14:46:12.333Z,25.70
2018-09-01T14:48:40.920Z,25.80
2018-09-01T14:51:10.338Z,25.60
2018-09-01T14:53:38.695Z,25.30
2018-09-01T14:56:08.725Z,24.40
2018-09-01T14:58:39.322Z,24.30
2018-09-01T15:01:08.169Z,24.90
2018-09-01T15:03:36.580Z,25.70
2018-09-01T15:06:05.530Z,25.80
2018-09-01T15:08:34.368Z,25.40
2018-09-01T15:11:02.603Z,25.90
2018-09-01T15:13:31.093Z,25.60
2018-09-01T15:15:59.423Z,25.30
2018-09-01T15:18:27.743Z,25.50
2018-09-01T15:20:56.630Z,24.20
2018-09-01T15:23:25.826Z,24.70
2018-09-01T15:25:54.101Z,24.80
2018-09-01T15:28:22.896Z,24.50
2018-09-01T15:30:51.473Z,23.30
2018-09-01T15:33:19.735Z,23.60
2018-09-01T15:35:48.432Z,23.70
2018-09-01T15:38:16.643Z,24.30
2018-09-01T15:40:45.676Z,24.30
2018-09-01T15:43:14.270Z,24.40
2018-09-01T15:45:42.765Z,24.40
2018-09-01T15:48:11.727Z,23.40
2018-09-01T15:50:40.510Z,20.60
2018-09-01T15:53:09.417Z,21.10
2018-09-01T15:55:38.533Z,20.40
2018-09-01T15:58:06.750Z,19.00
2018-09-01T16:00:36.905Z,18.60
2018-09-01T16:03:05.577Z,19.30
2018-09-01T16:05:33.902Z,20.00
2018-09-01T16:08:08.416Z,20.20
2018-09-01T16:10:37.023Z,20.00
2018-09-01T16:13:06.347Z,20.50
2018-09-01T16:15:34.582Z,21.00
2018-09-01T16:18:02.941Z,22.50
2018-09-01T16:20:31.590Z,23.90
2018-09-01T16:23:00.265Z,25.00
2018-09-01T16:25:29.247Z,24.30
2018-09-01T16:27:57.818Z,24.60
2018-09-01T16:30:27.375Z,24.30
2018-09-01T16:32:55.695Z,24.70
2018-09-01T16:35:23.930Z,25.00
2018-09-01T16:37:52.585Z,25.50
2018-09-01T16:40:21.048Z,25.70
2018-09-01T16:42:49.704Z,26.00
2018-09-01T16:45:18.244Z,26.30
2018-09-01T16:47:46.516Z,26.80
2018-09-01T16:50:14.948Z,26.80
2018-09-01T16:52:43.181Z,27.20
2018-09-01T16:55:11.409Z,27.30
2018-09-01T16:57:40.924Z,27.80
2018-09-01T17:00:09.529Z,27.90
2018-09-01T17:02:37.753Z,28.00
2018-09-01T17:05:06.454Z,28.10
2018-09-01T17:07:35.336Z,28.70
2018-09-01T17:10:04.275Z,28.10
2018-09-01T17:12:33.042Z,28.40
2018-09-01T17:15:01.989Z,28.30
2018-09-01T17:17:30.610Z,28.80
2018-09-01T17:19:58.881Z,28.80
2018-09-01T17:22:27.476Z,29.10
2018-09-01T17:24:55.673Z,29.30
2018-09-01T17:27:23.861Z,30.00
2018-09-01T17:29:52.362Z,30.00
2018-09-01T17:32:20.585Z,30.10
2018-09-01T17:34:49.082Z,30.10
2018-09-01T17:39:46.957Z,29.90
2018-09-01T17:42:15.306Z,30.30
2018-09-01T17:44:43.619Z,30.70
2018-09-01T17:47:12.380Z,30.90
2018-09-01T17:49:41.227Z,31.10
2018-09-01T17:52:10.161Z,31.10
2018-09-01T17:54:39.850Z,31.50
2018-09-01T17:57:08.766Z,31.50
2018-09-01T17:59:37.338Z,32.30
2018-09-01T18:02:05.828Z,32.00
2018-09-01T18:04:34.817Z,32.30
2018-09-01T18:07:04.285Z,32.20
2018-09-01T18:09:32.904Z,32.50
2018-09-01T18:12:01.493Z,32.50
2018-09-01T18:14:30.125Z,32.70
2018-09-01T18:17:00.267Z,32.40
2018-09-01T18:19:28.628Z,32.50
2018-09-01T18:21:57.073Z,33.20
2018-09-01T18:24:25.333Z,32.60
2018-09-01T18:26:53.612Z,32.40
2018-09-01T18:29:23.380Z,33.00
2018-09-01T18:31:51.639Z,33.20
2018-09-01T18:34:21.034Z,33.40
2018-09-01T18:36:49.833Z,33.40
2018-09-01T18:39:18.382Z,33.50
2018-09-01T18:41:47.475Z,34.00
2018-09-01T18:44:15.966Z,34.10
2018-09-01T18:46:46.189Z,34.40
2018-09-01T18:49:14.384Z,34.10
2018-09-01T18:51:43.111Z,34.30
2018-09-01T18:54:12.012Z,34.50
2018-09-01T18:56:41.341Z,34.70
2018-09-01T18:59:10.457Z,34.80
2018-09-01T19:01:38.703Z,35.20
2018-09-01T19:04:07.108Z,35.50
2018-09-01T19:06:36.726Z,35.00
2018-09-01T19:09:06.753Z,35.40
2018-09-01T19:11:35.642Z,35.60
2018-09-01T19:14:04.036Z,35.80
2018-09-01T19:16:32.850Z,35.20
2018-09-01T19:19:01.214Z,35.90
2018-09-01T19:21:29.465Z,35.60
2018-09-01T19:23:57.467Z,35.70
2018-09-01T19:26:26.384Z,34.60
2018-09-01T19:28:55.312Z,34.90
2018-09-01T19:31:23.676Z,34.80
2018-09-01T19:33:52.545Z,35.40
2018-09-01T19:36:21.163Z,34.40
2018-09-01T19:38:49.342Z,35.00
2018-09-01T19:41:17.866Z,34.80
2018-09-01T19:43:46.133Z,34.90
2018-09-01T19:46:14.471Z,35.10
2018-09-01T19:48:42.695Z,35.10
2018-09-01T19:51:11.695Z,35.00
2018-09-01T19:53:39.932Z,35.20
2018-09-01T19:56:08.473Z,35.60
2018-09-01T19:58:37.679Z,35.50
2018-09-01T20:01:05.886Z,36.40
2018-09-01T20:03:34.117Z,36.80
2018-09-01T20:06:02.420Z,36.90
2018-09-01T20:08:30.989Z,37.10
2018-09-01T20:10:59.984Z,37.80
2018-09-01T20:13:28.403Z,38.00
2018-09-01T20:16:03.242Z,38.10
2018-09-01T20:18:32.230Z,38.10
2018-09-01T20:21:01.135Z,38.30
2018-09-01T20:23:29.942Z,38.50
2018-09-01T20:25:58.544Z,38.30
2018-09-01T20:28:33.753Z,38.40
2018-09-01T20:31:02.584Z,38.40
2018-09-01T20:33:31.237Z,38.90
2018-09-01T20:35:59.672Z,38.80
2018-09-01T20:38:28.735Z,38.60
2018-09-01T20:40:57.452Z,38.70
2018-09-01T20:43:26.520Z,39.00
2018-09-01T20:45:55.144Z,38.80
2018-09-01T20:48:23.993Z,39.10
2018-09-01T20:50:52.706Z,39.20
2018-09-01T20:53:21.774Z,39.10
2018-09-01T20:55:50.460Z,39.50
2018-09-01T20:58:19.765Z,39.90
2018-09-01T21:00:48.257Z,40.00
2018-09-01T21:03:17.994Z,40.10
2018-09-01T21:05:46.229Z,40.20
2018-09-01T21:08:14.981Z,40.20
2018-09-01T21:10:43.600Z,40.00
2018-09-01T21:13:12.260Z,40.20
2018-09-01T21:15:40.837Z,40.20
2018-09-01T21:18:09.169Z,40.10
2018-09-01T21:20:38.183Z,40.30
2018-09-01T21:23:07.175Z,40.30
2018-09-01T21:25:35.901Z,40.50
2018-09-01T21:28:04.408Z,40.30
2018-09-01T21:30:32.653Z,40.80
2018-09-01T21:33:01.104Z,41.00
2018-09-01T21:35:29.496Z,40.90
2018-09-01T21:37:58.376Z,41.20
2018-09-01T21:40:26.584Z,41.70
2018-09-01T21:42:55.479Z,41.50
2018-09-01T21:45:23.948Z,41.70
2018-09-01T21:47:52.241Z,41.60
2018-09-01T21:50:21.142Z,41.90
2018-09-01T21:52:49.444Z,42.00
2018-09-01T21:57:46.084Z,41.70
2018-09-01T22:00:15.848Z,41.90
2018-09-01T22:02:44.198Z,42.40
2018-09-01T22:05:14.991Z,42.80
2018-09-01T22:07:43.732Z,42.10
2018-09-01T22:10:12.012Z,42.80
2018-09-01T22:12:40.263Z,42.50
2018-09-01T22:15:09.300Z,43.00
2018-09-01T22:17:37.516Z,42.20
2018-09-01T22:20:06.013Z,42.10
2018-09-01T22:22:34.204Z,42.70
2018-09-01T22:25:02.495Z,42.20
2018-09-01T22:27:31.099Z,42.80
2018-09-01T22:29:59.979Z,43.00
2018-09-01T22:32:28.599Z,43.00
2018-09-01T22:34:56.912Z,43.10
2018-09-01T22:37:25.375Z,43.10
2018-09-01T22:39:53.925Z,43.30
2018-09-01T22:42:22.192Z,42.80
2018-09-01T22:44:50.412Z,42.70
2018-09-01T22:47:25.304Z,42.80
2018-09-01T22:49:54.557Z,43.30
2018-09-01T22:52:23.113Z,43.10
2018-09-01T22:54:51.911Z,42.90
2018-09-01T22:57:20.784Z,43.40
2018-09-01T22:59:49.332Z,43.40
2018-09-01T23:02:18.087Z,43.30
2018-09-01T23:04:46.983Z,43.90
2018-09-01T23:07:15.460Z,43.90
2018-09-01T23:09:45.468Z,43.80
2018-09-01T23:12:13.802Z,44.10
2018-09-01T23:14:42.262Z,44.20
2018-09-01T23:17:10.987Z,43.90
2018-09-01T23:19:39.238Z,44.40
2018-09-01T23:22:07.636Z,43.90
2018-09-01T23:24:36.558Z,44.30
2018-09-01T23:27:05.081Z,44.80
2018-09-01T23:29:33.724Z,44.00
2018-09-01T23:32:02.392Z,44.60
2018-09-01T23:34:30.786Z,44.30
2018-09-01T23:36:59.516Z,44.80
2018-09-01T23:39:28.401Z,44.20
2018-09-01T23:41:56.971Z,44.80
2018-09-01T23:44:25.900Z,44.20
2018-09-01T23:46:54.145Z,44.80
2018-09-01T23:49:22.404Z,44.20
2018-09-01T23:51:50.920Z,44.80
2018-09-01T23:54:20.790Z,44.20
2018-09-01T23:56:49.055Z,44.20
2018-09-01T23:59:18.804Z,44.80
